Time;durP1;ratioP1;P1;durP2;ratioP2;P2;SDS_P1;SDS_P2;PMS_P1;PMS_P2;Temp;Humidity;BMP_temperature;BMP_pressure;BME280_temperature;BME280_humidity;BME280_pressure;Samples;Min_cycle;Max_cycle;Signal;HPM_P1;HPM_P2
2021/05/11 00:01:11;;;;;;;1.40;1.30;;;;;;;7.55;100.00;96837.81;5114135;28;20215;-93
2021/05/11 00:03:43;;;;;;;2.97;1.50;;;;;;;7.78;100.00;96833.31;5113815;28;20790;-94
2021/05/11 00:06:10;;;;;;;1.20;1.10;;;;;;;7.86;100.00;96830.88;5114091;28;20191;-93
2021/05/11 00:08:37;;;;;;;1.07;1.07;;;;;;;7.72;100.00;96836.41;5114257;28;20200;-94
2021/05/11 00:11:05;;;;;;;1.30;1.20;;;;;;;7.92;100.00;96819.06;5114354;28;20206;-94
2021/05/11 00:13:32;;;;;;;1.47;1.37;;;;;;;7.77;100.00;96822.00;5113846;28;20207;-93
2021/05/11 00:15:59;;;;;;;1.70;1.40;;;;;;;7.45;100.00;96832.53;5113511;28;20219;-92
2021/05/11 00:18:26;;;;;;;1.13;1.07;;;;;;;7.53;100.00;96824.03;5113667;28;20188;-93
2021/05/11 00:20:58;;;;;;;1.23;1.13;;;;;;;7.58;100.00;96817.47;5114307;28;20198;-93
2021/05/11 00:23:25;;;;;;;1.10;1.10;;;;;;;7.46;100.00;96815.88;5113647;28;20631;-93
2021/05/11 00:25:52;;;;;;;3.20;1.50;;;;;;;7.30;100.00;96815.44;5113646;28;20671;-94
2021/05/11 00:28:19;;;;;;;2.40;1.20;;;;;;;7.21;100.00;96814.44;5113293;28;20199;-93
2021/05/11 00:30:46;;;;;;;1.13;1.13;;;;;;;7.00;100.00;96817.00;5114466;28;20601;-93
2021/05/11 00:33:13;;;;;;;1.20;1.20;;;;;;;6.95;100.00;96800.81;5113455;28;20622;-94
2021/05/11 00:35:40;;;;;;;0.90;0.90;;;;;;;7.04;100.00;96801.88;5113341;28;20258;-93
2021/05/11 00:38:08;;;;;;;1.43;1.33;;;;;;;6.99;100.00;96789.16;5112871;28;20769;-93
2021/05/11 00:40:35;;;;;;;1.40;1.30;;;;;;;7.04;100.00;96789.66;5113717;28;20578;-93
2021/05/11 00:43:04;;;;;;;1.27;1.17;;;;;;;6.92;100.00;96777.56;5113630;28;20676;-93
2021/05/11 00:45:31;;;;;;;1.80;1.20;;;;;;;6.82;100.00;96782.72;5113510;28;20196;-93
2021/05/11 00:48:01;;;;;;;1.33;1.30;;;;;;;6.84;100.00;96779.97;5113736;28;20203;-93
2021/05/11 00:50:28;;;;;;;1.30;1.20;;;;;;;6.63;100.00;96775.50;5112976;28;20682;-93
2021/05/11 00:52:55;;;;;;;1.17;1.00;;;;;;;6.60;100.00;96767.91;5113175;28;20199;-92
2021/05/11 00:55:27;;;;;;;2.80;1.40;;;;;;;6.53;100.00;96756.28;5113075;28;20695;-93
2021/05/11 00:57:54;;;;;;;1.43;1.33;;;;;;;6.67;100.00;96749.97;5113087;28;20282;-93
2021/05/11 01:00:22;;;;;;;1.40;1.10;;;;;;;6.80;100.00;96753.25;5113454;28;20324;-93
2021/05/11 01:02:49;;;;;;;1.53;1.40;;;;;;;6.66;100.00;96761.38;5112694;27;20192;-93
2021/05/11 01:05:17;;;;;;;1.43;1.33;;;;;;;6.80;100.00;96763.69;5113593;28;20260;-92
2021/05/11 01:07:46;;;;;;;1.00;1.00;;;;;;;6.47;100.00;96761.16;5113496;28;20199;-92
2021/05/11 01:10:13;;;;;;;1.50;1.33;;;;;;;6.50;100.00;96760.91;5113214;28;20200;-92
2021/05/11 01:12:41;;;;;;;2.30;1.30;;;;;;;6.66;100.00;96761.38;5113437;27;20188;-92
2021/05/11 01:15:11;;;;;;;1.40;1.20;;;;;;;6.41;100.00;96760.69;5112785;28;20258;-93
2021/05/11 01:17:55;;;;;;;2.73;1.03;;;;;;;6.52;100.00;96759.84;5113163;28;20282;-93
2021/05/11 01:20:35;;;;;;;1.10;1.10;;;;;;;6.79;100.00;96753.34;5113133;28;20187;-93
2021/05/11 01:23:14;;;;;;;1.10;1.03;;;;;;;6.67;100.00;96752.56;5112589;28;20194;-94
2021/05/11 01:25:44;;;;;;;1.10;1.10;;;;;;;6.67;100.00;96749.97;5112920;28;20249;-93
2021/05/11 01:28:18;;;;;;;1.40;1.30;;;;;;;6.88;100.00;96742.19;5113071;28;20199;-93
2021/05/11 01:31:14;;;;;;;1.40;1.30;;;;;;;6.84;100.00;96751.22;5112865;28;20191;-93
2021/05/11 01:47:49;;;;;;;1.30;1.20;;;;;;;6.75;100.00;96737.09;5117029;27;20168;-92
2021/05/11 01:50:21;;;;;;;2.30;2.20;;;;;;;6.82;100.00;96740.91;5116405;28;20610;-92
2021/05/11 01:55:41;;;;;;;2.37;2.17;;;;;;;6.75;100.00;96737.09;5105901;28;20247;-93
2021/05/11 01:58:28;;;;;;;1.83;1.70;;;;;;;6.63;100.00;96740.72;5116510;28;20610;-92
2021/05/11 02:23:08;;;;;;;1.20;1.20;;;;;;;6.24;100.00;96685.50;5115625;28;20179;-91
2021/05/11 02:25:35;;;;;;;1.30;1.20;;;;;;;6.19;100.00;96677.19;5115630;28;20282;-91
2021/05/11 02:28:03;;;;;;;1.30;1.20;;;;;;;6.06;100.00;96676.47;5115574;28;20290;-87
2021/05/11 02:30:30;;;;;;;1.80;1.70;;;;;;;6.09;100.00;96668.41;5115423;28;20247;-86
2021/05/11 02:32:57;;;;;;;2.20;1.67;;;;;;;6.10;100.00;96668.31;5115264;28;20204;-92
2021/05/11 02:35:23;;;;;;;1.53;1.30;;;;;;;5.97;100.00;96661.56;5115607;28;20261;-92
2021/05/11 02:37:50;;;;;;;1.40;1.30;;;;;;;6.06;100.00;96656.47;5115825;28;20636;-92
2021/05/11 02:40:21;;;;;;;1.30;1.20;;;;;;;5.98;100.00;96660.63;5115599;28;20196;-92
2021/05/11 02:42:51;;;;;;;3.43;1.40;;;;;;;6.19;100.00;96657.13;5115568;28;20556;-92
2021/05/11 02:45:19;;;;;;;1.00;1.00;;;;;;;6.21;100.00;96659.63;5116029;28;20643;-93
2021/05/11 02:47:49;;;;;;;1.50;1.40;;;;;;;6.27;100.00;96674.81;5115486;28;20203;-93
2021/05/11 02:50:17;;;;;;;1.37;1.33;;;;;;;6.07;100.00;96670.34;5115948;28;20191;-93
2021/05/11 02:52:45;;;;;;;3.20;1.50;;;;;;;5.93;100.00;96669.63;5115436;27;20214;-93
2021/05/11 02:55:12;;;;;;;1.40;1.30;;;;;;;6.08;100.00;96670.19;5114804;28;20742;-91
2021/05/11 02:57:42;;;;;;;1.60;1.50;;;;;;;6.12;100.00;96673.41;5114278;28;20196;-92
2021/05/11 03:00:11;;;;;;;2.53;1.60;;;;;;;5.97;100.00;96658.97;5115219;28;20234;-92
2021/05/11 03:02:39;;;;;;;1.63;1.53;;;;;;;6.01;100.00;96652.53;5115081;28;20234;-93
2021/05/11 03:05:07;;;;;;;1.60;1.50;;;;;;;6.17;100.00;96646.00;5072749;28;20676;-92
2021/05/11 03:07:43;;;;;;;1.50;1.40;;;;;;;6.08;100.00;96640.66;5074248;28;20197;-92
2021/05/11 03:10:12;;;;;;;3.47;2.07;;;;;;;6.20;100.00;96639.72;5074138;28;20224;-93
2021/05/11 03:12:39;;;;;;;13.03;9.23;;;;;;;6.14;100.00;96642.81;5074190;28;20236;-87
2021/05/11 03:15:08;;;;;;;3.33;2.80;;;;;;;6.06;100.00;96635.59;5074123;28;20261;-88
2021/05/11 03:17:35;;;;;;;5.17;2.40;;;;;;;6.05;100.00;96630.47;5073817;28;20201;-87
2021/05/11 03:20:04;;;;;;;1.37;1.33;;;;;;;6.10;100.00;96626.56;5074294;28;20189;-88
2021/05/11 03:22:30;;;;;;;2.20;1.43;;;;;;;6.01;100.00;96622.06;5074198;28;20300;-85
2021/05/11 03:24:58;;;;;;;1.80;1.70;;;;;;;6.01;100.00;96616.03;5074024;28;20197;-87
2021/05/11 03:27:25;;;;;;;2.17;1.97;;;;;;;5.92;100.00;96610.59;5074010;28;20198;-87
2021/05/11 03:29:51;;;;;;;9.50;2.20;;;;;;;5.90;100.00;96609.84;5073946;28;20280;-86
2021/05/11 03:32:18;;;;;;;2.40;2.10;;;;;;;6.00;100.00;96606.53;5074141;28;20275;-87
2021/05/11 03:34:45;;;;;;;2.07;1.53;;;;;;;6.01;100.00;96603.78;5073832;28;20225;-87
2021/05/11 03:37:16;;;;;;;2.10;1.90;;;;;;;5.91;100.00;96595.84;5074020;28;20197;-88
2021/05/11 03:39:44;;;;;;;2.53;2.10;;;;;;;5.86;100.00;96584.13;5073253;28;20204;-90
2021/05/11 03:42:15;;;;;;;1.70;1.60;;;;;;;6.01;100.00;96582.91;5074318;28;20193;-89
2021/05/11 03:44:43;;;;;;;2.00;1.83;;;;;;;5.94;100.00;96571.31;5077340;28;20657;-90
2021/05/11 03:47:11;;;;;;;1.70;1.60;;;;;;;5.94;100.00;96582.56;5073673;28;20220;-90
2021/05/11 03:49:38;;;;;;;2.77;1.80;;;;;;;6.00;100.00;96568.22;5073896;28;20193;-89
2021/05/11 03:52:06;;;;;;;1.63;1.53;;;;;;;6.00;100.00;96560.41;5073722;28;20200;-90
2021/05/11 03:54:34;;;;;;;2.10;1.90;;;;;;;5.99;100.00;96552.69;5073746;28;20225;-90
2021/05/11 03:57:01;;;;;;;25.17;12.10;;;;;;;6.03;100.00;96548.91;5073772;28;20201;-90
2021/05/11 03:59:28;;;;;;;21.07;9.13;;;;;;;6.05;100.00;96553.03;5073433;28;20293;-90
2021/05/11 04:01:54;;;;;;;10.13;8.07;;;;;;;6.00;100.00;96564.78;5073318;28;20236;-90
2021/05/11 04:04:22;;;;;;;7.03;4.70;;;;;;;6.13;100.00;96555.00;5101724;28;20237;-80
2021/05/11 04:06:49;;;;;;;5.43;3.17;;;;;;;5.98;100.00;96554.47;5113068;28;20576;-79
2021/05/11 04:09:21;;;;;;;2.53;1.80;;;;;;;5.85;100.00;96551.16;5112793;28;20290;-83
2021/05/11 04:12:29;;;;;;;2.83;2.03;;;;;;;6.07;100.00;96540.69;5113179;28;20196;-83
2021/05/11 04:17:43;;;;;;;1.70;1.60;;;;;;;6.38;100.00;96564.31;5092452;28;20233;-84
2021/05/11 04:20:12;;;;;;;3.77;1.87;;;;;;;6.46;100.00;96576.72;5092506;28;20204;-83
2021/05/11 04:22:39;;;;;;;2.10;1.80;;;;;;;6.57;100.00;96592.34;5092098;28;20243;-84
2021/05/11 04:25:06;;;;;;;5.23;4.63;;;;;;;6.65;100.00;96580.31;5092339;28;20232;-83
2021/05/11 04:27:34;;;;;;;14.63;4.07;;;;;;;6.51;100.00;96571.94;5092483;28;20799;-84
2021/05/11 04:30:03;;;;;;;2.50;2.30;;;;;;;6.36;100.00;96559.19;5092705;28;20236;-83
2021/05/11 04:32:31;;;;;;;2.03;1.83;;;;;;;6.46;100.00;96555.84;5092324;28;20195;-83
2021/05/11 04:34:57;;;;;;;2.20;1.93;;;;;;;6.56;100.00;96565.41;5092170;28;20360;-84
2021/05/11 04:37:24;;;;;;;2.00;1.77;;;;;;;6.35;100.00;96580.22;5092765;28;20196;-85
2021/05/11 04:39:52;;;;;;;2.27;1.43;;;;;;;6.35;100.00;96567.97;5092159;28;20203;-84
2021/05/11 04:42:19;;;;;;;3.10;2.40;;;;;;;6.07;100.00;96558.13;5093035;28;20195;-84
2021/05/11 04:44:47;;;;;;;2.97;2.10;;;;;;;6.28;100.00;96551.16;5092688;28;20244;-84
2021/05/11 04:47:16;;;;;;;2.87;2.17;;;;;;;6.57;100.00;96555.78;5092376;28;20204;-84
2021/05/11 04:49:43;;;;;;;2.27;2.07;;;;;;;6.63;100.00;96553.47;5092347;28;20200;-84
2021/05/11 04:52:12;;;;;;;5.70;3.20;;;;;;;6.79;100.00;96533.91;5092012;28;20764;-86
2021/05/11 04:54:39;;;;;;;9.93;3.83;;;;;;;6.75;100.00;96509.81;5092325;28;20259;-84
2021/05/11 04:57:07;;;;;;;4.60;2.60;;;;;;;6.96;100.00;96501.13;5092137;28;20292;-84
2021/05/11 04:59:34;;;;;;;2.20;2.10;;;;;;;7.06;100.00;96496.78;5092062;28;20247;-84
2021/05/11 05:02:03;;;;;;;3.03;2.27;;;;;;;7.22;100.00;96499.75;5092161;28;20289;-84
2021/05/11 05:04:32;;;;;;;11.30;7.23;;;;;;;7.46;100.00;96504.66;5107503;28;20642;-84
2021/05/11 05:06:59;;;;;;;5.63;4.43;;;;;;;7.37;100.00;96508.03;5112831;28;20284;-85
2021/05/11 05:09:26;;;;;;;3.67;2.93;;;;;;;7.32;100.00;96502.41;5112484;28;20739;-85
2021/05/11 05:11:53;;;;;;;5.13;3.40;;;;;;;7.65;100.00;96503.03;5112583;28;20244;-85
2021/05/11 05:14:20;;;;;;;11.13;3.87;;;;;;;7.84;100.00;96529.25;5112342;28;20198;-85
2021/05/11 05:16:46;;;;;;;6.30;3.10;;;;;;;8.05;100.00;96547.44;5112537;28;20206;-85
2021/05/11 05:19:17;;;;;;;3.17;2.60;;;;;;;8.32;100.00;96550.22;5113441;27;20693;-85
2021/05/11 05:21:50;;;;;;;5.53;4.30;;;;;;;8.47;100.00;96562.94;5116439;28;20582;-85
2021/05/11 05:24:29;;;;;;;10.80;3.10;;;;;;;8.76;100.00;96579.47;5116331;28;20191;-88
2021/05/11 05:27:03;;;;;;;2.27;2.07;;;;;;;8.80;100.00;96595.75;5116656;28;20186;-85
2021/05/11 05:29:30;;;;;;;3.37;1.80;;;;;;;8.85;100.00;96611.06;5116489;28;20197;-86
2021/05/11 05:31:57;;;;;;;5.37;2.17;;;;;;;9.00;100.00;96609.66;5116404;28;20201;-86
2021/05/11 05:34:24;;;;;;;6.87;2.30;;;;;;;9.19;100.00;96616.66;5116463;28;20226;-85
2021/05/11 05:36:51;;;;;;;2.77;2.10;;;;;;;9.47;100.00;96607.06;5115522;28;20675;-86
2021/05/11 05:39:18;;;;;;;4.20;2.27;;;;;;;9.72;100.00;96614.28;5114310;28;20199;-85
2021/05/11 05:41:45;;;;;;;5.33;1.80;;;;;;;10.03;100.00;96631.56;5116400;28;20206;-86
2021/05/11 05:44:11;;;;;;;1.67;1.57;;;;;;;9.91;100.00;96644.06;5116261;28;20241;-85
2021/05/11 05:46:38;;;;;;;3.53;1.80;;;;;;;10.06;100.00;96652.28;5116213;28;20235;-86
2021/05/11 05:49:07;;;;;;;2.03;1.90;;;;;;;10.44;100.00;96654.72;5115937;28;20238;-86
2021/05/11 05:51:35;;;;;;;2.90;1.77;;;;;;;10.70;100.00;96657.44;5115982;28;20207;-86
2021/05/11 05:54:02;;;;;;;2.83;1.90;;;;;;;10.92;100.00;96661.41;5116195;28;20231;-86
2021/05/11 05:56:29;;;;;;;1.57;1.47;;;;;;;11.26;100.00;96668.59;5116200;28;20666;-86
2021/05/11 05:58:56;;;;;;;2.23;1.50;;;;;;;11.42;100.00;96681.03;5115833;28;20191;-86
2021/05/11 06:01:27;;;;;;;1.30;1.20;;;;;;;11.46;100.00;96694.72;5115974;28;20192;-86
2021/05/11 06:04:06;;;;;;;1.50;1.40;;;;;;;11.76;100.00;96693.44;5115500;28;20322;-86
2021/05/11 06:06:33;;;;;;;0.97;0.97;;;;;;;11.89;100.00;96697.34;5115533;28;20696;-85
2021/05/11 06:09:01;;;;;;;1.40;1.30;;;;;;;12.14;100.00;96694.84;5115481;28;20203;-85
2021/05/11 06:11:36;;;;;;;1.10;1.10;;;;;;;11.98;100.00;96697.38;5115573;28;20188;-85
2021/05/11 06:14:12;;;;;;;1.03;0.97;;;;;;;12.25;100.00;96694.53;5116203;28;20707;-85
2021/05/11 06:19:25;;;;;;;2.60;1.20;;;;;;;12.50;100.00;96684.91;5096864;28;20628;-85
2021/05/11 06:21:52;;;;;;;1.50;1.40;;;;;;;12.10;100.00;96691.69;5115449;28;20234;-85
2021/05/11 06:24:20;;;;;;;1.27;1.17;;;;;;;12.41;100.00;96679.78;5115112;28;20274;-85
2021/05/11 06:26:47;;;;;;;2.43;1.37;;;;;;;12.77;100.00;96677.72;5115285;28;20187;-85
2021/05/11 06:29:14;;;;;;;1.13;1.13;;;;;;;13.24;100.00;96680.63;5115039;28;20243;-86
2021/05/11 06:31:41;;;;;;;1.20;1.20;;;;;;;13.60;100.00;96668.88;5114905;28;20238;-86
2021/05/11 06:34:09;;;;;;;1.77;1.30;;;;;;;13.79;100.00;96674.63;5115581;28;20245;-85
2021/05/11 06:36:36;;;;;;;2.00;1.53;;;;;;;13.34;100.00;96677.81;5115437;28;20599;-86
2021/05/11 06:39:08;;;;;;;3.13;1.27;;;;;;;13.57;100.00;96670.84;5115248;28;20285;-85
2021/05/11 06:41:37;;;;;;;2.87;1.63;;;;;;;13.75;100.00;96672.47;5115174;28;20191;-85
2021/05/11 06:44:07;;;;;;;1.57;1.37;;;;;;;14.30;100.00;96652.31;5114997;28;20294;-86
2021/05/11 06:49:33;;;;;;;1.60;1.50;;;;;;;14.34;100.00;96659.75;5107588;28;20664;-86
2021/05/11 06:54:41;;;;;;;1.63;1.50;;;;;;;14.76;100.00;96633.91;5109771;28;20215;-84
2021/05/11 06:57:09;;;;;;;4.37;1.60;;;;;;;15.19;100.00;96622.63;5114823;28;20201;-84
2021/05/11 06:59:36;;;;;;;1.30;1.20;;;;;;;15.17;100.00;96631.75;5114907;28;20286;-84
2021/05/11 07:02:03;;;;;;;1.50;1.40;;;;;;;14.97;100.00;96629.63;5114810;28;20287;-84
2021/05/11 07:04:30;;;;;;;1.23;1.10;;;;;;;15.18;100.00;96628.13;5114483;28;20256;-84
2021/05/11 07:06:58;;;;;;;1.93;1.60;;;;;;;14.82;100.00;96636.66;5115177;28;20662;-84
2021/05/11 07:09:34;;;;;;;2.07;1.50;;;;;;;15.21;100.00;96635.72;5114884;28;20602;-84
2021/05/11 07:14:47;;;;;;;2.80;2.10;;;;;;;15.93;100.00;96628.09;5114685;28;20201;-84
2021/05/11 07:17:14;;;;;;;1.70;1.40;;;;;;;15.55;100.00;96634.41;5114332;28;20196;-84
2021/05/11 07:19:40;;;;;;;3.90;1.57;;;;;;;15.71;100.00;96626.31;5114434;28;20318;-84
2021/05/11 07:22:07;;;;;;;1.50;1.40;;;;;;;15.43;100.00;96628.72;5114370;28;20202;-84
2021/05/11 07:24:34;;;;;;;2.73;1.30;;;;;;;15.62;100.00;96622.06;5114379;28;20195;-84
2021/05/11 07:29:47;;;;;;;1.27;1.27;;;;;;;15.88;100.00;96621.69;5110987;27;20220;-84
2021/05/11 07:32:15;;;;;;;1.50;1.40;;;;;;;16.25;100.00;96612.78;5114428;27;20200;-84
2021/05/11 07:34:44;;;;;;;1.63;1.53;;;;;;;17.00;100.00;96608.06;5114358;28;20285;-84
2021/05/11 07:37:11;;;;;;;2.77;1.43;;;;;;;16.80;100.00;96611.38;5114413;28;20192;-84
2021/05/11 07:39:40;;;;;;;2.33;1.90;;;;;;;16.36;100.00;96609.63;5113769;28;20201;-84
2021/05/11 07:42:08;;;;;;;1.33;1.17;;;;;;;16.02;100.00;96609.41;5112951;28;20660;-84
2021/05/11 07:44:37;;;;;;;4.23;1.60;;;;;;;16.56;100.00;96609.06;5113868;28;20191;-84
2021/05/11 07:47:10;;;;;;;2.10;1.87;;;;;;;16.66;100.00;96604.25;5113920;28;20211;-84
2021/05/11 08:03:57;;;;;;;1.43;1.30;;;;;;;16.96;100.00;96601.50;5113468;28;20276;-84
2021/05/11 08:14:56;;;;;;;1.43;1.30;;;;;;;17.13;100.00;96594.09;5113751;28;20631;-84
2021/05/11 08:17:23;;;;;;;0.93;0.93;;;;;;;16.90;100.00;96588.97;5113285;28;20186;-85
2021/05/11 08:20:05;;;;;;;4.77;1.50;;;;;;;17.09;100.00;96583.03;5113340;28;20201;-84
2021/05/11 08:22:50;;;;;;;1.20;1.10;;;;;;;17.50;100.00;96579.66;5113544;28;20220;-85
2021/05/11 08:28:07;;;;;;;1.70;1.37;;;;;;;17.48;100.00;96574.53;5113294;28;20196;-84
2021/05/11 08:30:34;;;;;;;6.60;2.17;;;;;;;18.00;100.00;96565.25;5113483;28;20272;-84
2021/05/11 08:33:01;;;;;;;2.53;1.60;;;;;;;17.95;100.00;96570.34;5113052;28;20659;-84
2021/05/11 08:35:28;;;;;;;1.47;1.37;;;;;;;18.03;100.00;96562.19;5113043;28;20307;-85
2021/05/11 08:37:56;;;;;;;1.53;1.43;;;;;;;17.68;100.00;96577.31;5113015;28;20230;-85
2021/05/11 08:40:24;;;;;;;2.40;1.30;;;;;;;17.60;100.00;96580.16;5113559;28;20623;-84
2021/05/11 08:42:51;;;;;;;1.40;1.30;;;;;;;17.89;100.00;96563.16;5113341;28;20194;-85
2021/05/11 08:45:18;;;;;;;1.27;1.20;;;;;;;18.26;100.00;96558.41;5113077;28;20600;-84
2021/05/11 08:47:52;;;;;;;1.50;1.40;;;;;;;18.13;100.00;96569.81;5112888;28;20245;-85
2021/05/11 08:50:23;;;;;;;2.57;1.40;;;;;;;17.87;100.00;96567.00;5113350;28;20186;-85
2021/05/11 09:07:10;;;;;;;2.97;1.30;;;;;;;19.30;100.00;96543.81;5113647;28;20225;-85
2021/05/11 09:09:48;;;;;;;2.07;1.30;;;;;;;18.91;100.00;96543.63;5112787;28;20223;-85
2021/05/11 09:26:05;;;;;;;1.47;1.20;;;;;;;18.94;100.00;96534.38;5113144;28;20618;-84
2021/05/11 09:28:41;;;;;;;1.40;1.30;;;;;;;18.87;100.00;96534.38;5112473;28;20190;-85
2021/05/11 09:31:22;;;;;;;3.47;2.33;;;;;;;19.94;100.00;96521.72;5112530;28;20698;-85
2021/05/11 09:33:56;;;;;;;5.73;1.57;;;;;;;19.99;100.00;96521.94;5112739;28;20223;-86
2021/05/11 10:37:24;;;;;;;1.30;1.20;;;;;;;22.02;100.00;96438.59;5115713;28;20291;-87
2021/05/11 10:48:21;;;;;;;1.40;1.30;;;;;;;21.08;100.00;96442.53;5115782;28;20178;-87
2021/05/11 10:50:51;;;;;;;3.33;1.90;;;;;;;21.25;100.00;96432.91;5115418;28;20200;-87
2021/05/11 10:53:40;;;;;;;1.43;1.30;;;;;;;21.34;100.00;96430.81;5115461;28;20279;-87
2021/05/11 10:56:58;;;;;;;1.73;1.23;;;;;;;21.33;100.00;96432.59;5115466;28;20648;-87
2021/05/11 10:59:35;;;;;;;3.07;1.33;;;;;;;21.10;100.00;96433.25;5115276;27;20234;-86
2021/05/11 11:02:24;;;;;;;1.60;1.37;;;;;;;21.25;100.00;96434.75;5115509;28;20244;-86
2021/05/11 11:04:51;;;;;;;4.20;1.20;;;;;;;21.29;100.00;96425.25;5115132;27;20772;-87
2021/05/11 11:07:18;;;;;;;6.33;1.77;;;;;;;21.24;100.00;96433.13;5115173;28;20687;-86
2021/05/11 11:09:57;;;;;;;1.83;1.07;;;;;;;21.43;100.00;96421.41;5115159;28;20203;-87
2021/05/11 11:12:24;;;;;;;1.07;1.00;;;;;;;21.43;100.00;96423.28;5115384;28;20183;-86
2021/05/11 11:14:50;;;;;;;1.27;1.10;;;;;;;21.05;100.00;96426.94;5114981;28;20296;-86
2021/05/11 11:17:17;;;;;;;1.97;1.23;;;;;;;21.46;100.00;96410.28;5113811;28;20729;-86
2021/05/11 11:19:53;;;;;;;1.27;1.27;;;;;;;21.50;100.00;96407.97;5114914;28;20223;-86
2021/05/11 11:25:07;;;;;;;1.57;1.30;;;;;;;21.93;100.00;96399.81;5114891;28;20179;-85
2021/05/11 11:27:34;;;;;;;1.93;1.40;;;;;;;22.21;100.00;96393.91;5114969;28;20287;-86
2021/05/11 11:30:04;;;;;;;5.23;1.33;;;;;;;22.15;100.00;96399.34;5114476;28;20242;-86
2021/05/11 11:32:31;;;;;;;2.00;1.20;;;;;;;21.82;100.00;96398.75;5114612;28;20206;-86
2021/05/11 11:34:59;;;;;;;1.30;1.20;;;;;;;21.63;100.00;96407.81;5114693;28;20653;-86
2021/05/11 11:37:27;;;;;;;1.27;1.17;;;;;;;21.59;100.00;96412.81;5114658;28;20669;-86
2021/05/11 11:39:56;;;;;;;2.57;1.40;;;;;;;21.54;100.00;96404.63;5114413;28;20198;-86
2021/05/11 11:42:26;;;;;;;3.00;1.03;;;;;;;20.92;100.00;96411.88;5114195;28;20715;-85
2021/05/11 11:44:57;;;;;;;1.40;1.30;;;;;;;21.22;100.00;96398.59;5114265;28;20756;-86
2021/05/11 11:47:24;;;;;;;1.43;1.33;;;;;;;21.17;100.00;96413.69;5114396;28;20225;-86
2021/05/11 11:49:54;;;;;;;2.27;1.10;;;;;;;21.35;100.00;96403.00;5114109;28;20282;-86
2021/05/11 11:52:28;;;;;;;3.77;1.23;;;;;;;22.00;100.00;96392.53;5114568;28;20218;-86
2021/05/11 11:55:25;;;;;;;1.47;1.37;;;;;;;21.81;100.00;96390.91;5114205;28;20558;-86
2021/05/11 11:57:55;;;;;;;1.00;1.00;;;;;;;22.07;100.00;96395.91;5114281;28;20219;-85
2021/05/11 12:00:25;;;;;;;1.00;0.90;;;;;;;22.02;100.00;96386.94;5114233;28;20274;-86
2021/05/11 12:02:54;;;;;;;1.93;1.20;;;;;;;21.85;100.00;96394.78;5114188;28;20644;-85
2021/05/11 12:05:22;;;;;;;1.37;1.27;;;;;;;21.64;100.00;96400.59;5114066;28;20207;-86
2021/05/11 12:08:08;;;;;;;1.70;1.60;;;;;;;21.92;100.00;96384.78;5101238;28;20224;-85
2021/05/11 12:10:37;;;;;;;2.43;1.30;;;;;;;22.15;100.00;96380.59;5097910;28;20200;-86
2021/05/11 12:13:07;;;;;;;1.27;1.10;;;;;;;22.38;100.00;96374.50;5093379;28;20226;-85
2021/05/11 12:15:34;;;;;;;1.13;1.13;;;;;;;21.97;100.00;96376.91;5093009;28;20245;-86
2021/05/11 12:18:06;;;;;;;1.93;1.40;;;;;;;22.05;100.00;96365.88;5093486;28;20325;-86
2021/05/11 12:20:33;;;;;;;2.03;1.20;;;;;;;22.77;100.00;96356.94;5093400;28;20180;-85
2021/05/11 12:23:05;;;;;;;6.57;1.40;;;;;;;22.63;100.00;96355.53;5093089;28;20687;-86
2021/05/11 12:25:31;;;;;;;3.80;1.53;;;;;;;22.45;100.00;96362.63;5093406;28;20275;-86
2021/05/11 12:27:58;;;;;;;1.40;1.30;;;;;;;22.82;100.00;96345.50;5093068;28;20284;-86
2021/05/11 12:30:41;;;;;;;1.17;1.03;;;;;;;22.85;100.00;96339.69;5092920;28;20225;-86
2021/05/11 12:33:10;;;;;;;1.10;1.00;;;;;;;23.22;100.00;96340.25;5093033;28;20249;-85
2021/05/11 12:35:41;;;;;;;4.87;1.10;;;;;;;22.86;100.00;96339.47;5093197;28;20235;-88
2021/05/11 12:38:18;;;;;;;1.27;1.17;;;;;;;22.54;100.00;96347.81;5092988;28;20181;-87
2021/05/11 12:40:58;;;;;;;3.93;1.30;;;;;;;22.77;100.00;96343.53;5093041;28;20194;-86
2021/05/11 12:43:41;;;;;;;2.00;1.33;;;;;;;22.40;100.00;96334.91;5092691;28;20195;-88
2021/05/11 12:46:20;;;;;;;1.13;1.13;;;;;;;21.81;100.00;96343.56;5093837;28;20192;-83
2021/05/11 12:49:15;;;;;;;1.50;1.40;;;;;;;22.11;100.00;96336.56;5093001;28;20188;-86
2021/05/11 12:51:55;;;;;;;2.57;1.10;;;;;;;22.16;100.00;96326.00;5107239;28;20273;-92
2021/05/11 12:54:32;;;;;;;3.00;1.40;;;;;;;22.25;100.00;96316.59;5113146;28;20282;-92
2021/05/11 12:57:14;;;;;;;5.13;2.90;;;;;;;22.42;100.00;96319.44;5112917;28;20219;-92
2021/05/11 12:59:50;;;;;;;1.60;1.50;;;;;;;21.80;100.00;96330.44;5116048;28;20221;-87
2021/05/11 13:02:50;;;;;;;4.17;3.73;;;;;;;21.54;100.00;96332.41;5112989;28;20245;-88
2021/05/11 13:14:30;;;;;;;2.77;2.40;;;;;;;21.51;100.00;96322.19;5112878;28;20183;-88
2021/05/11 13:17:03;;;;;;;3.53;1.77;;;;;;;21.32;100.00;96328.56;5112481;28;20223;-89
2021/05/11 13:19:56;;;;;;;2.90;1.20;;;;;;;21.74;100.00;96323.31;5113189;28;20202;-88
2021/05/11 13:22:36;;;;;;;2.83;2.57;;;;;;;21.19;100.00;96326.88;5113159;28;20329;-86
2021/05/11 13:25:12;;;;;;;6.37;3.43;;;;;;;21.10;100.00;96323.69;5113247;28;20716;-86
2021/05/11 13:27:43;;;;;;;4.60;1.40;;;;;;;21.34;100.00;96308.63;5113346;28;20190;-91
2021/05/11 13:30:26;;;;;;;2.73;2.23;;;;;;;21.41;100.00;96321.09;5113109;28;20180;-90
2021/05/11 13:33:00;;;;;;;1.57;1.43;;;;;;;21.34;100.00;96305.16;5113111;28;20183;-88
2021/05/11 13:35:28;;;;;;;5.13;1.53;;;;;;;21.50;100.00;96309.84;5112848;28;20203;-91
2021/05/11 13:37:55;;;;;;;2.00;1.80;;;;;;;21.14;100.00;96316.06;5113076;28;20253;-91
2021/05/11 13:40:22;;;;;;;3.03;1.50;;;;;;;21.01;100.00;96310.84;5113808;28;20611;-88
2021/05/11 13:42:49;;;;;;;1.67;1.57;;;;;;;21.03;100.00;96304.25;5117050;28;20226;-87
2021/05/11 13:45:15;;;;;;;3.73;1.30;;;;;;;20.88;100.00;96309.13;5116764;28;20286;-88
2021/05/11 13:47:58;;;;;;;1.13;1.07;;;;;;;20.90;100.00;96307.06;5116911;28;20191;-88
2021/05/11 13:50:33;;;;;;;1.90;1.20;;;;;;;20.92;100.00;96302.34;5116208;28;20283;-90
2021/05/11 13:53:07;;;;;;;3.57;1.20;;;;;;;21.24;100.00;96291.47;5116477;28;20195;-87
2021/05/11 13:55:37;;;;;;;6.17;1.93;;;;;;;21.63;100.00;96283.97;5116429;28;20235;-90
2021/05/11 14:03:44;;;;;;;2.83;1.40;;;;;;;21.22;100.00;96283.66;5072085;28;20267;-87
2021/05/11 14:06:11;;;;;;;3.13;1.50;;;;;;;21.53;100.00;96285.34;5074086;28;20197;-88
2021/05/11 14:08:39;;;;;;;1.50;1.20;;;;;;;21.26;100.00;96286.69;5083797;28;20337;-85
2021/05/11 14:11:09;;;;;;;5.43;1.50;;;;;;;21.56;100.00;96282.22;5116447;28;20192;-91
2021/05/11 14:13:39;;;;;;;1.77;1.67;;;;;;;21.28;100.00;96285.44;5115738;28;20206;-88
2021/05/11 14:16:09;;;;;;;3.43;2.00;;;;;;;21.19;100.00;96269.94;5115769;28;20306;-90
2021/05/11 14:18:41;;;;;;;1.10;1.10;;;;;;;21.25;100.00;96279.72;5115933;28;20252;-89
2021/05/11 14:21:08;;;;;;;1.37;1.27;;;;;;;21.04;100.00;96279.16;5115773;28;20211;-90
2021/05/11 14:23:39;;;;;;;2.30;1.50;;;;;;;21.13;100.00;96275.16;5115730;28;20202;-89
2021/05/11 14:26:06;;;;;;;2.97;1.50;;;;;;;21.55;100.00;96259.19;5115966;28;20211;-88
2021/05/11 14:28:39;;;;;;;1.40;1.20;;;;;;;21.05;100.00;96264.75;5116283;28;20192;-88
2021/05/11 14:31:09;;;;;;;1.30;1.20;;;;;;;21.06;100.00;96265.56;5116191;27;20279;-90
2021/05/11 14:33:36;;;;;;;1.90;1.33;;;;;;;21.51;100.00;96255.34;5115583;28;20192;-88
2021/05/11 14:36:07;;;;;;;1.40;1.30;;;;;;;20.98;100.00;96258.66;5115578;28;20234;-89
2021/05/11 14:38:41;;;;;;;1.23;1.13;;;;;;;21.08;100.00;96248.28;5115857;28;20207;-89
2021/05/11 14:41:10;;;;;;;1.30;1.13;;;;;;;21.16;100.00;96246.31;5116472;28;20757;-90
2021/05/11 14:43:41;;;;;;;2.37;1.03;;;;;;;21.27;100.00;96245.59;5115755;28;20283;-88
2021/05/11 14:46:10;;;;;;;3.33;1.30;;;;;;;21.14;100.00;96246.56;5115445;28;20278;-90
2021/05/11 14:48:37;;;;;;;1.23;1.17;;;;;;;21.56;100.00;96238.59;5115553;28;20248;-82
2021/05/11 14:51:06;;;;;;;2.27;1.30;;;;;;;21.19;100.00;96245.88;5114121;28;20202;-82
2021/05/11 14:53:33;;;;;;;4.27;1.73;;;;;;;20.93;100.00;96245.19;5114104;28;20191;-82
2021/05/11 14:56:01;;;;;;;7.87;1.53;;;;;;;20.75;100.00;96251.34;5114418;28;20223;-80
2021/05/11 14:58:28;;;;;;;3.27;1.33;;;;;;;20.69;100.00;96254.91;5114264;28;20202;-81
2021/05/11 15:00:55;;;;;;;5.47;1.33;;;;;;;21.09;100.00;96247.25;5114233;28;20272;-82